createdAt,value
2023-02-16T00:00:01.020Z,27.90
2023-02-16T00:05:22.188Z,24.33
2023-02-16T00:10:25.328Z,35.85
2023-02-16T00:15:26.839Z,23.45
2023-02-16T00:20:31.754Z,23.85
2023-02-16T00:25:33.306Z,26.67
2023-02-16T00:30:34.854Z,25.60
2023-02-16T00:35:36.460Z,25.52
2023-02-16T00:40:38.520Z,23.95
2023-02-16T00:45:41.215Z,23.42
2023-02-16T00:50:42.971Z,24.17
2023-02-16T00:55:44.791Z,23.30
2023-02-16T01:00:50.921Z,22.80
2023-02-16T01:06:15.366Z,23.95
2023-02-16T01:11:17.344Z,24.55
2023-02-16T01:16:24.899Z,31.83
2023-02-16T01:21:26.402Z,31.70
2023-02-16T01:26:28.656Z,33.30
2023-02-16T01:31:30.265Z,29.75
2023-02-16T01:36:35.250Z,27.52
2023-02-16T01:41:59.411Z,27.83
2023-02-16T01:47:12.836Z,22.75
2023-02-16T01:52:38.599Z,25.48
2023-02-16T01:57:48.255Z,24.63
2023-02-16T02:03:16.294Z,24.90
2023-02-16T02:08:31.257Z,24.67
2023-02-16T02:13:41.066Z,23.58
2023-02-16T02:18:44.935Z,23.42
2023-02-16T02:24:11.701Z,23.10
2023-02-16T02:29:48.947Z,23.38
2023-02-16T02:35:17.998Z,23.80
2023-02-16T02:40:47.953Z,25.25
2023-02-16T02:46:14.464Z,23.33
2023-02-16T02:51:33.563Z,23.08
2023-02-16T02:56:57.785Z,23.67
2023-02-16T03:02:02.484Z,22.25
2023-02-16T03:07:06.581Z,22.05
2023-02-16T03:12:28.820Z,22.33
2023-02-16T03:17:53.982Z,23.38
2023-02-16T03:23:15.328Z,22.13
2023-02-16T03:28:38.149Z,21.30
2023-02-16T03:33:41.040Z,21.50
2023-02-16T03:38:42.680Z,23.63
2023-02-16T03:43:44.341Z,22.27
2023-02-16T03:48:45.828Z,22.08
2023-02-16T03:53:47.409Z,28.33
2023-02-16T03:58:48.921Z,23.60
2023-02-16T04:03:50.578Z,23.80
2023-02-16T04:08:52.166Z,23.42
2023-02-16T04:13:53.679Z,23.55
2023-02-16T04:18:55.311Z,23.80
2023-02-16T04:23:56.847Z,24.13
2023-02-16T04:28:58.394Z,23.50
2023-02-16T04:33:59.929Z,25.30
2023-02-16T04:39:01.640Z,23.02
2023-02-16T04:44:03.363Z,22.83
2023-02-16T04:49:04.907Z,23.67
2023-02-16T04:54:07.459Z,22.35
2023-02-16T04:59:09.004Z,21.38
2023-02-16T05:04:10.708Z,23.05
2023-02-16T05:09:12.453Z,21.88
2023-02-16T05:14:38.676Z,23.45
2023-02-16T05:19:41.065Z,25.90
2023-02-16T05:24:43.327Z,23.05
2023-02-16T05:29:44.878Z,24.52
2023-02-16T05:34:46.454Z,24.48
2023-02-16T05:39:48.664Z,23.00
2023-02-16T05:44:50.254Z,24.38
2023-02-16T05:49:51.776Z,22.67
2023-02-16T05:54:53.404Z,23.13
2023-02-16T05:59:54.908Z,24.10
2023-02-16T06:04:56.404Z,23.80
2023-02-16T06:09:57.961Z,25.70
2023-02-16T06:14:59.476Z,24.92
2023-02-16T06:20:00.939Z,24.52
2023-02-16T06:25:03.283Z,24.45
2023-02-16T06:30:06.154Z,25.83
2023-02-16T06:35:07.968Z,26.52
2023-02-16T06:40:10.449Z,24.75
2023-02-16T06:45:12.201Z,25.35
2023-02-16T06:50:14.503Z,25.30
2023-02-16T06:55:16.163Z,24.15
2023-02-16T07:00:18.132Z,24.10
2023-02-16T07:05:19.658Z,23.38
2023-02-16T07:10:21.262Z,24.00
2023-02-16T07:15:23.229Z,24.55
2023-02-16T07:20:24.738Z,24.67
2023-02-16T07:25:26.313Z,23.95
2023-02-16T07:30:27.933Z,22.85
2023-02-16T07:35:29.668Z,25.27
2023-02-16T07:40:31.729Z,24.65
2023-02-16T07:45:34.016Z,22.88
2023-02-16T07:50:36.739Z,26.55
2023-02-16T07:55:45.603Z,25.20
2023-02-16T08:00:47.127Z,24.15
2023-02-16T08:05:48.860Z,24.50
2023-02-16T08:10:50.447Z,23.95
2023-02-16T08:15:51.985Z,38.85
2023-02-16T08:21:03.843Z,28.05
2023-02-16T08:26:13.832Z,25.52
2023-02-16T08:31:30.995Z,26.85
2023-02-16T08:36:34.942Z,18.90
2023-02-16T08:41:37.484Z,24.27
2023-02-16T08:46:41.219Z,24.38
2023-02-16T08:51:46.151Z,25.17
2023-02-16T08:56:49.533Z,25.38
2023-02-16T09:01:51.115Z,25.30
2023-02-16T09:06:53.452Z,25.45
2023-02-16T09:11:55.166Z,26.58
2023-02-16T09:16:57.998Z,25.80
2023-02-16T09:21:59.732Z,27.05
2023-02-16T09:27:01.649Z,27.60
2023-02-16T09:32:03.336Z,28.33
2023-02-16T09:37:04.939Z,28.35
2023-02-16T09:42:11.498Z,29.50
2023-02-16T09:47:24.608Z,29.60
2023-02-16T09:52:38.008Z,29.42
2023-02-16T09:58:04.333Z,27.90
2023-02-16T10:03:21.258Z,30.08
2023-02-16T10:08:31.271Z,27.88
2023-02-16T10:13:49.580Z,26.38
2023-02-16T10:18:53.471Z,28.95
2023-02-16T10:24:00.607Z,29.38
2023-02-16T10:29:14.063Z,23.00
2023-02-16T10:34:37.762Z,28.05
2023-02-16T10:39:51.971Z,29.00
2023-02-16T10:45:15.532Z,28.02
2023-02-16T10:50:35.904Z,27.33
2023-02-16T10:55:38.711Z,28.73
2023-02-16T11:00:51.818Z,27.92
2023-02-16T11:05:53.597Z,27.00
2023-02-16T11:10:55.521Z,28.05
2023-02-16T11:16:01.138Z,28.95
2023-02-16T11:21:04.227Z,28.90
2023-02-16T11:26:12.016Z,26.50
2023-02-16T11:31:18.766Z,28.60
2023-02-16T11:36:37.601Z,28.67
2023-02-16T11:41:48.666Z,28.60
2023-02-16T11:46:50.332Z,29.38
2023-02-16T11:51:51.913Z,31.48
2023-02-16T11:57:05.315Z,30.15
2023-02-16T12:02:44.515Z,29.95
2023-02-16T12:08:03.651Z,27.55
2023-02-16T12:13:32.916Z,28.58
2023-02-16T12:18:53.330Z,30.05
2023-02-16T12:24:17.916Z,32.15
2023-02-16T12:29:57.573Z,33.53
2023-02-16T12:35:37.728Z,32.30
2023-02-16T12:41:12.836Z,30.52
2023-02-16T12:46:29.635Z,35.33
2023-02-16T12:51:39.094Z,34.58
2023-02-16T12:56:50.223Z,35.42
2023-02-16T13:01:56.092Z,35.75
2023-02-16T13:07:06.168Z,36.13
2023-02-16T13:12:39.313Z,34.83
2023-02-16T13:17:47.333Z,36.60
2023-02-16T13:23:03.605Z,37.58
2023-02-16T13:28:44.434Z,38.17
2023-02-16T13:34:20.830Z,36.63
2023-02-16T13:39:47.519Z,36.72
2023-02-16T13:44:55.902Z,38.90
2023-02-16T13:50:01.417Z,38.50
2023-02-16T13:55:08.277Z,39.08
2023-02-16T14:00:34.600Z,38.35
2023-02-16T14:05:44.958Z,37.00
2023-02-16T14:10:53.142Z,37.17
2023-02-16T14:21:15.465Z,35.70
2023-02-16T14:26:17.751Z,36.17
2023-02-16T14:31:22.865Z,36.95
2023-02-16T14:36:26.960Z,36.75
2023-02-16T14:41:36.857Z,37.35
2023-02-16T14:47:03.365Z,38.03
2023-02-16T14:52:29.557Z,34.35
2023-02-16T14:57:31.325Z,36.35
2023-02-16T15:02:36.355Z,34.33
2023-02-16T15:07:38.876Z,36.53
2023-02-16T15:12:41.191Z,36.25
2023-02-16T15:17:48.094Z,38.78
2023-02-16T15:22:52.515Z,40.20
2023-02-16T15:28:04.397Z,42.03
2023-02-16T15:33:14.082Z,40.45
2023-02-16T15:38:26.555Z,43.35
2023-02-16T15:43:35.834Z,43.53
2023-02-16T15:48:38.366Z,43.22
2023-02-16T15:53:50.007Z,43.92
2023-02-16T15:58:52.952Z,49.15
2023-02-16T16:03:54.784Z,43.78
2023-02-16T16:08:56.789Z,46.88
2023-02-16T16:13:58.409Z,48.50
2023-02-16T16:19:08.113Z,47.10
2023-02-16T16:24:10.733Z,50.67
2023-02-16T16:29:34.461Z,45.25
2023-02-16T16:34:39.029Z,44.10
2023-02-16T16:39:41.543Z,44.45
2023-02-16T16:44:55.353Z,41.88
2023-02-16T16:50:10.561Z,43.08
2023-02-16T16:55:27.198Z,43.38
2023-02-16T17:00:34.474Z,41.35
2023-02-16T17:05:38.241Z,29.23
2023-02-16T17:10:41.258Z,37.45
2023-02-16T17:16:09.441Z,37.33
2023-02-16T17:21:13.368Z,33.03
2023-02-16T17:26:15.055Z,32.42
2023-02-16T17:31:16.721Z,34.70
2023-02-16T17:36:20.452Z,34.20
2023-02-16T17:41:27.754Z,33.83
2023-02-16T17:46:30.662Z,30.43
2023-02-16T17:51:36.194Z,30.60
2023-02-16T17:56:41.731Z,32.38
2023-02-16T18:01:44.588Z,30.52
2023-02-16T18:06:46.178Z,26.98
2023-02-16T18:11:47.809Z,27.08
2023-02-16T18:16:52.916Z,26.77
2023-02-16T18:21:54.883Z,24.55
2023-02-16T18:26:56.510Z,23.83
2023-02-16T18:31:58.120Z,25.13
2023-02-16T18:36:59.792Z,25.20
2023-02-16T18:42:01.455Z,25.13
2023-02-16T18:47:03.332Z,24.77
2023-02-16T18:52:04.847Z,25.92
2023-02-16T18:57:07.060Z,25.48
2023-02-16T19:02:08.670Z,23.27
2023-02-16T19:07:10.781Z,23.15
2023-02-16T19:12:12.693Z,21.45
2023-02-16T19:17:14.395Z,21.08
2023-02-16T19:22:15.968Z,19.63
2023-02-16T19:27:18.175Z,20.63
2023-02-16T19:32:20.467Z,22.67
2023-02-16T19:37:22.140Z,23.20
2023-02-16T19:42:23.936Z,22.02
2023-02-16T19:47:25.526Z,22.40
2023-02-16T19:52:27.119Z,22.33
2023-02-16T19:57:28.707Z,24.42
2023-02-16T20:02:31.964Z,23.23
2023-02-16T20:07:34.727Z,21.27
2023-02-16T20:12:36.564Z,20.13
2023-02-16T20:17:38.162Z,20.92
2023-02-16T20:22:39.734Z,20.30
2023-02-16T20:27:41.814Z,21.67
2023-02-16T20:32:43.446Z,23.10
2023-02-16T20:37:45.016Z,22.75
2023-02-16T20:42:46.540Z,21.25
2023-02-16T20:47:48.691Z,21.30
2023-02-16T20:52:50.236Z,22.08
2023-02-16T20:57:51.791Z,23.38
2023-02-16T21:02:54.204Z,23.75
2023-02-16T21:07:55.839Z,22.85
2023-02-16T21:12:57.425Z,23.73
2023-02-16T21:17:59.145Z,23.08
2023-02-16T21:23:03.424Z,24.10
2023-02-16T21:28:05.017Z,22.40
2023-02-16T21:33:06.597Z,22.88
2023-02-16T21:38:08.155Z,22.35
2023-02-16T21:43:10.353Z,27.13
2023-02-16T21:48:30.514Z,21.67
2023-02-16T21:53:32.062Z,20.15
2023-02-16T21:58:33.781Z,21.73
2023-02-16T22:03:35.821Z,20.33
2023-02-16T22:08:38.100Z,20.38
2023-02-16T22:13:40.118Z,20.67
2023-02-16T22:18:42.153Z,20.30
2023-02-16T22:23:43.681Z,20.52
2023-02-16T22:28:45.159Z,19.10
2023-02-16T22:33:47.444Z,19.13
2023-02-16T22:38:48.996Z,19.15
2023-02-16T22:43:55.217Z,20.17
2023-02-16T22:48:58.498Z,21.98
2023-02-16T22:54:01.699Z,20.17
2023-02-16T22:59:03.374Z,18.90
2023-02-16T23:04:05.054Z,18.60
2023-02-16T23:09:22.891Z,19.98
2023-02-16T23:14:24.426Z,19.25
2023-02-16T23:19:26.610Z,18.38
2023-02-16T23:24:28.325Z,18.27
2023-02-16T23:29:30.125Z,19.50
2023-02-16T23:34:31.834Z,18.80
2023-02-16T23:39:33.366Z,19.40
2023-02-16T23:44:34.886Z,20.25
2023-02-16T23:49:36.428Z,20.10
2023-02-16T23:54:38.020Z,21.90
2023-02-16T23:59:39.889Z,20.67
